<?xml version="1.0" encoding="UTF-8" standalone="no" ?>
<gpx xmlns="http://www.topografix.com/GPX/1/1" xmlns:xsi="http://www.w3.org/2001/XMLSchema-instance" xsi:schemaLocation="http://www.topografix.com/GPX/1/1 http://www.topografix.com/GPX/1/1/gpx.xsd" version="1.1" creator="VisuGPX - https://www.visugpx.com">
  <metadata>
    <name>10994079-Limony Charnas Vinzieux</name>
  </metadata>
  <trk>
    <name><![CDATA[10994079-Limony Charnas Vinzieux]]></name>
    <trkseg>
      <trkpt lat="45.34981" lon="4.75766">
        <ele>140</ele>
        <time>2022-02-20T11:09:43Z</time>
      </trkpt>
      <trkpt lat="45.34959" lon="4.75841">
        <ele>140</ele>
        <time>2022-02-20T11:10:59Z</time>
      </trkpt>
      <trkpt lat="45.34881" lon="4.75805">
        <ele>139</ele>
        <time>2022-02-20T11:12:49Z</time>
      </trkpt>
      <trkpt lat="45.34799" lon="4.75762">
        <ele>139</ele>
        <time>2022-02-20T11:14:45Z</time>
      </trkpt>
      <trkpt lat="45.34758" lon="4.75735">
        <ele>142</ele>
        <time>2022-02-20T11:15:46Z</time>
      </trkpt>
      <trkpt lat="45.34705" lon="4.75709">
        <ele>143</ele>
        <time>2022-02-20T11:17:00Z</time>
      </trkpt>
      <trkpt lat="45.34666" lon="4.75699">
        <ele>141</ele>
        <time>2022-02-20T11:17:53Z</time>
      </trkpt>
      <trkpt lat="45.34657" lon="4.75692">
        <ele>141</ele>
        <time>2022-02-20T11:18:07Z</time>
      </trkpt>
      <trkpt lat="45.34648" lon="4.75672">
        <ele>142</ele>
        <time>2022-02-20T11:18:29Z</time>
      </trkpt>
      <trkpt lat="45.34622" lon="4.75666">
        <ele>142</ele>
        <time>2022-02-20T11:19:04Z</time>
      </trkpt>
      <trkpt lat="45.34602" lon="4.75655">
        <ele>143</ele>
        <time>2022-02-20T11:19:33Z</time>
      </trkpt>
      <trkpt lat="45.34544" lon="4.75674">
        <ele>141</ele>
        <time>2022-02-20T11:20:52Z</time>
      </trkpt>
      <trkpt lat="45.34473" lon="4.75674">
        <ele>142</ele>
        <time>2022-02-20T11:22:27Z</time>
      </trkpt>
      <trkpt lat="45.3447" lon="4.7567">
        <ele>142</ele>
        <time>2022-02-20T11:22:33Z</time>
      </trkpt>
      <trkpt lat="45.34466" lon="4.756">
        <ele>151</ele>
        <time>2022-02-20T11:23:39Z</time>
      </trkpt>
      <trkpt lat="45.34454" lon="4.75564">
        <ele>158</ele>
        <time>2022-02-20T11:24:16Z</time>
      </trkpt>
      <trkpt lat="45.34447" lon="4.75561">
        <ele>159</ele>
        <time>2022-02-20T11:24:26Z</time>
      </trkpt>
      <trkpt lat="45.34443" lon="4.75576">
        <ele>156</ele>
        <time>2022-02-20T11:24:41Z</time>
      </trkpt>
      <trkpt lat="45.34435" lon="4.75576">
        <ele>157</ele>
        <time>2022-02-20T11:24:51Z</time>
      </trkpt>
      <trkpt lat="45.34408" lon="4.75528">
        <ele>167</ele>
        <time>2022-02-20T11:25:49Z</time>
      </trkpt>
      <trkpt lat="45.34356" lon="4.75464">
        <ele>186</ele>
        <time>2022-02-20T11:27:21Z</time>
      </trkpt>
      <trkpt lat="45.34351" lon="4.75448">
        <ele>187</ele>
        <time>2022-02-20T11:27:37Z</time>
      </trkpt>
      <trkpt lat="45.34338" lon="4.75432">
        <ele>188</ele>
        <time>2022-02-20T11:28:00Z</time>
      </trkpt>
      <trkpt lat="45.3432" lon="4.75427">
        <ele>192</ele>
        <time>2022-02-20T11:28:25Z</time>
      </trkpt>
      <trkpt lat="45.34309" lon="4.7543">
        <ele>195</ele>
        <time>2022-02-20T11:28:40Z</time>
      </trkpt>
      <trkpt lat="45.34291" lon="4.75419">
        <ele>201</ele>
        <time>2022-02-20T11:29:06Z</time>
      </trkpt>
      <trkpt lat="45.34268" lon="4.75397">
        <ele>206</ele>
        <time>2022-02-20T11:29:43Z</time>
      </trkpt>
      <trkpt lat="45.34248" lon="4.75384">
        <ele>210</ele>
        <time>2022-02-20T11:30:12Z</time>
      </trkpt>
      <trkpt lat="45.34234" lon="4.75361">
        <ele>214</ele>
        <time>2022-02-20T11:30:41Z</time>
      </trkpt>
      <trkpt lat="45.34203" lon="4.75333">
        <ele>227</ele>
        <time>2022-02-20T11:31:30Z</time>
      </trkpt>
      <trkpt lat="45.34173" lon="4.75285">
        <ele>240</ele>
        <time>2022-02-20T11:32:30Z</time>
      </trkpt>
      <trkpt lat="45.34164" lon="4.75222">
        <ele>240</ele>
        <time>2022-02-20T11:33:30Z</time>
      </trkpt>
      <trkpt lat="45.34117" lon="4.75163">
        <ele>257</ele>
        <time>2022-02-20T11:34:54Z</time>
      </trkpt>
      <trkpt lat="45.34105" lon="4.75139">
        <ele>263</ele>
        <time>2022-02-20T11:35:21Z</time>
      </trkpt>
      <trkpt lat="45.34107" lon="4.7512">
        <ele>262</ele>
        <time>2022-02-20T11:35:39Z</time>
      </trkpt>
      <trkpt lat="45.34119" lon="4.75108">
        <ele>258</ele>
        <time>2022-02-20T11:35:59Z</time>
      </trkpt>
      <trkpt lat="45.34122" lon="4.75097">
        <ele>257</ele>
        <time>2022-02-20T11:36:10Z</time>
      </trkpt>
      <trkpt lat="45.34116" lon="4.75068">
        <ele>262</ele>
        <time>2022-02-20T11:36:38Z</time>
      </trkpt>
      <trkpt lat="45.34117" lon="4.75034">
        <ele>267</ele>
        <time>2022-02-20T11:37:10Z</time>
      </trkpt>
      <trkpt lat="45.34111" lon="4.75004">
        <ele>274</ele>
        <time>2022-02-20T11:37:40Z</time>
      </trkpt>
      <trkpt lat="45.34126" lon="4.74914">
        <ele>278</ele>
        <time>2022-02-20T11:39:06Z</time>
      </trkpt>
      <trkpt lat="45.34136" lon="4.74891">
        <ele>276</ele>
        <time>2022-02-20T11:39:32Z</time>
      </trkpt>
      <trkpt lat="45.34135" lon="4.74865">
        <ele>279</ele>
        <time>2022-02-20T11:39:56Z</time>
      </trkpt>
      <trkpt lat="45.34106" lon="4.74839">
        <ele>290</ele>
        <time>2022-02-20T11:40:42Z</time>
      </trkpt>
      <trkpt lat="45.34086" lon="4.74809">
        <ele>295</ele>
        <time>2022-02-20T11:41:21Z</time>
      </trkpt>
      <trkpt lat="45.34076" lon="4.74793">
        <ele>297</ele>
        <time>2022-02-20T11:41:41Z</time>
      </trkpt>
      <trkpt lat="45.34065" lon="4.74754">
        <ele>299</ele>
        <time>2022-02-20T11:42:20Z</time>
      </trkpt>
      <trkpt lat="45.34039" lon="4.74746">
        <ele>302</ele>
        <time>2022-02-20T11:42:56Z</time>
      </trkpt>
      <trkpt lat="45.33995" lon="4.74721">
        <ele>309</ele>
        <time>2022-02-20T11:43:59Z</time>
      </trkpt>
      <trkpt lat="45.33958" lon="4.74672">
        <ele>316</ele>
        <time>2022-02-20T11:45:06Z</time>
      </trkpt>
      <trkpt lat="45.33939" lon="4.7466">
        <ele>320</ele>
        <time>2022-02-20T11:45:34Z</time>
      </trkpt>
      <trkpt lat="45.33899" lon="4.74623">
        <ele>327</ele>
        <time>2022-02-20T11:46:38Z</time>
      </trkpt>
      <trkpt lat="45.3389" lon="4.74603">
        <ele>328</ele>
        <time>2022-02-20T11:47:00Z</time>
      </trkpt>
      <trkpt lat="45.33871" lon="4.74579">
        <ele>330</ele>
        <time>2022-02-20T11:47:34Z</time>
      </trkpt>
      <trkpt lat="45.33818" lon="4.74557">
        <ele>334</ele>
        <time>2022-02-20T11:48:48Z</time>
      </trkpt>
      <trkpt lat="45.33777" lon="4.74535">
        <ele>335</ele>
        <time>2022-02-20T11:49:46Z</time>
      </trkpt>
      <trkpt lat="45.33753" lon="4.74518">
        <ele>336</ele>
        <time>2022-02-20T11:50:22Z</time>
      </trkpt>
      <trkpt lat="45.33738" lon="4.74495">
        <ele>337</ele>
        <time>2022-02-20T11:50:51Z</time>
      </trkpt>
      <trkpt lat="45.33727" lon="4.74486">
        <ele>337</ele>
        <time>2022-02-20T11:51:08Z</time>
      </trkpt>
      <trkpt lat="45.3371" lon="4.74487">
        <ele>338</ele>
        <time>2022-02-20T11:51:31Z</time>
      </trkpt>
      <trkpt lat="45.33658" lon="4.74504">
        <ele>338</ele>
        <time>2022-02-20T11:52:42Z</time>
      </trkpt>
      <trkpt lat="45.33626" lon="4.74522">
        <ele>336</ele>
        <time>2022-02-20T11:53:28Z</time>
      </trkpt>
      <trkpt lat="45.33603" lon="4.74486">
        <ele>337</ele>
        <time>2022-02-20T11:54:14Z</time>
      </trkpt>
      <trkpt lat="45.33595" lon="4.74465">
        <ele>336</ele>
        <time>2022-02-20T11:54:36Z</time>
      </trkpt>
      <trkpt lat="45.33587" lon="4.74425">
        <ele>336</ele>
        <time>2022-02-20T11:55:15Z</time>
      </trkpt>
      <trkpt lat="45.33595" lon="4.74387">
        <ele>335</ele>
        <time>2022-02-20T11:55:52Z</time>
      </trkpt>
      <trkpt lat="45.33592" lon="4.74362">
        <ele>334</ele>
        <time>2022-02-20T11:56:16Z</time>
      </trkpt>
      <trkpt lat="45.3357" lon="4.74305">
        <ele>332</ele>
        <time>2022-02-20T11:57:17Z</time>
      </trkpt>
      <trkpt lat="45.3356" lon="4.74263">
        <ele>333</ele>
        <time>2022-02-20T11:57:59Z</time>
      </trkpt>
      <trkpt lat="45.33538" lon="4.74222">
        <ele>333</ele>
        <time>2022-02-20T11:58:47Z</time>
      </trkpt>
      <trkpt lat="45.33512" lon="4.74092">
        <ele>337</ele>
        <time>2022-02-20T12:00:54Z</time>
      </trkpt>
      <trkpt lat="45.33486" lon="4.74037">
        <ele>340</ele>
        <time>2022-02-20T12:01:56Z</time>
      </trkpt>
      <trkpt lat="45.33482" lon="4.74007">
        <ele>342</ele>
        <time>2022-02-20T12:02:25Z</time>
      </trkpt>
      <trkpt lat="45.3349" lon="4.73873">
        <ele>346</ele>
        <time>2022-02-20T12:04:31Z</time>
      </trkpt>
      <trkpt lat="45.33476" lon="4.73783">
        <ele>347</ele>
        <time>2022-02-20T12:05:57Z</time>
      </trkpt>
      <trkpt lat="45.33479" lon="4.7372">
        <ele>347</ele>
        <time>2022-02-20T12:06:57Z</time>
      </trkpt>
      <trkpt lat="45.33468" lon="4.73626">
        <ele>347</ele>
        <time>2022-02-20T12:08:26Z</time>
      </trkpt>
      <trkpt lat="45.33465" lon="4.7353">
        <ele>345</ele>
        <time>2022-02-20T12:09:56Z</time>
      </trkpt>
      <trkpt lat="45.33468" lon="4.73464">
        <ele>344</ele>
        <time>2022-02-20T12:10:58Z</time>
      </trkpt>
      <trkpt lat="45.33479" lon="4.73435">
        <ele>344</ele>
        <time>2022-02-20T12:11:29Z</time>
      </trkpt>
      <trkpt lat="45.33478" lon="4.73409">
        <ele>345</ele>
        <time>2022-02-20T12:11:53Z</time>
      </trkpt>
      <trkpt lat="45.33482" lon="4.73385">
        <ele>346</ele>
        <time>2022-02-20T12:12:17Z</time>
      </trkpt>
      <trkpt lat="45.33481" lon="4.73292">
        <ele>348</ele>
        <time>2022-02-20T12:13:44Z</time>
      </trkpt>
      <trkpt lat="45.33473" lon="4.7325">
        <ele>348</ele>
        <time>2022-02-20T12:14:25Z</time>
      </trkpt>
      <trkpt lat="45.33472" lon="4.73192">
        <ele>348</ele>
        <time>2022-02-20T12:15:19Z</time>
      </trkpt>
      <trkpt lat="45.3348" lon="4.73077">
        <ele>349</ele>
        <time>2022-02-20T12:17:07Z</time>
      </trkpt>
      <trkpt lat="45.33482" lon="4.72972">
        <ele>350</ele>
        <time>2022-02-20T12:18:46Z</time>
      </trkpt>
      <trkpt lat="45.33488" lon="4.72925">
        <ele>352</ele>
        <time>2022-02-20T12:19:31Z</time>
      </trkpt>
      <trkpt lat="45.33486" lon="4.72892">
        <ele>353</ele>
        <time>2022-02-20T12:20:02Z</time>
      </trkpt>
      <trkpt lat="45.33498" lon="4.72746">
        <ele>354</ele>
        <time>2022-02-20T12:22:20Z</time>
      </trkpt>
      <trkpt lat="45.33496" lon="4.72698">
        <ele>356</ele>
        <time>2022-02-20T12:23:05Z</time>
      </trkpt>
      <trkpt lat="45.33506" lon="4.72636">
        <ele>357</ele>
        <time>2022-02-20T12:24:05Z</time>
      </trkpt>
      <trkpt lat="45.33512" lon="4.72563">
        <ele>358</ele>
        <time>2022-02-20T12:25:14Z</time>
      </trkpt>
      <trkpt lat="45.33539" lon="4.72392">
        <ele>357</ele>
        <time>2022-02-20T12:27:58Z</time>
      </trkpt>
      <trkpt lat="45.33553" lon="4.72235">
        <ele>356</ele>
        <time>2022-02-20T12:30:26Z</time>
      </trkpt>
      <trkpt lat="45.33555" lon="4.72072">
        <ele>360</ele>
        <time>2022-02-20T12:32:59Z</time>
      </trkpt>
      <trkpt lat="45.33548" lon="4.72006">
        <ele>363</ele>
        <time>2022-02-20T12:34:02Z</time>
      </trkpt>
      <trkpt lat="45.33558" lon="4.71945">
        <ele>366</ele>
        <time>2022-02-20T12:35:01Z</time>
      </trkpt>
      <trkpt lat="45.3356" lon="4.71802">
        <ele>370</ele>
        <time>2022-02-20T12:37:15Z</time>
      </trkpt>
      <trkpt lat="45.3357" lon="4.71757">
        <ele>371</ele>
        <time>2022-02-20T12:37:59Z</time>
      </trkpt>
      <trkpt lat="45.33563" lon="4.71712">
        <ele>374</ele>
        <time>2022-02-20T12:38:42Z</time>
      </trkpt>
      <trkpt lat="45.33567" lon="4.71678">
        <ele>375</ele>
        <time>2022-02-20T12:39:15Z</time>
      </trkpt>
      <trkpt lat="45.33564" lon="4.71659">
        <ele>376</ele>
        <time>2022-02-20T12:39:33Z</time>
      </trkpt>
      <trkpt lat="45.33565" lon="4.7154">
        <ele>378</ele>
        <time>2022-02-20T12:41:25Z</time>
      </trkpt>
      <trkpt lat="45.33574" lon="4.71433">
        <ele>382</ele>
        <time>2022-02-20T12:43:06Z</time>
      </trkpt>
      <trkpt lat="45.33572" lon="4.71379">
        <ele>384</ele>
        <time>2022-02-20T12:43:56Z</time>
      </trkpt>
      <trkpt lat="45.33581" lon="4.71301">
        <ele>388</ele>
        <time>2022-02-20T12:45:11Z</time>
      </trkpt>
      <trkpt lat="45.33579" lon="4.71303">
        <ele>388</ele>
        <time>2022-02-20T12:45:14Z</time>
      </trkpt>
      <trkpt lat="45.33587" lon="4.71269">
        <ele>391</ele>
        <time>2022-02-20T12:45:47Z</time>
      </trkpt>
      <trkpt lat="45.33602" lon="4.71154">
        <ele>399</ele>
        <time>2022-02-20T12:47:37Z</time>
      </trkpt>
      <trkpt lat="45.33614" lon="4.71113">
        <ele>402</ele>
        <time>2022-02-20T12:48:19Z</time>
      </trkpt>
      <trkpt lat="45.33615" lon="4.71088">
        <ele>404</ele>
        <time>2022-02-20T12:48:42Z</time>
      </trkpt>
      <trkpt lat="45.33621" lon="4.71066">
        <ele>406</ele>
        <time>2022-02-20T12:49:04Z</time>
      </trkpt>
      <trkpt lat="45.33629" lon="4.70981">
        <ele>415</ele>
        <time>2022-02-20T12:50:25Z</time>
      </trkpt>
      <trkpt lat="45.33626" lon="4.7091">
        <ele>424</ele>
        <time>2022-02-20T12:51:32Z</time>
      </trkpt>
      <trkpt lat="45.33638" lon="4.70875">
        <ele>429</ele>
        <time>2022-02-20T12:52:08Z</time>
      </trkpt>
      <trkpt lat="45.33637" lon="4.70858">
        <ele>432</ele>
        <time>2022-02-20T12:52:24Z</time>
      </trkpt>
      <trkpt lat="45.33644" lon="4.70827">
        <ele>436</ele>
        <time>2022-02-20T12:52:55Z</time>
      </trkpt>
      <trkpt lat="45.33666" lon="4.7079">
        <ele>440</ele>
        <time>2022-02-20T12:53:40Z</time>
      </trkpt>
      <trkpt lat="45.33692" lon="4.70728">
        <ele>449</ele>
        <time>2022-02-20T12:54:48Z</time>
      </trkpt>
      <trkpt lat="45.33702" lon="4.70715">
        <ele>450</ele>
        <time>2022-02-20T12:55:06Z</time>
      </trkpt>
      <trkpt lat="45.33725" lon="4.70652">
        <ele>458</ele>
        <time>2022-02-20T12:56:13Z</time>
      </trkpt>
      <trkpt lat="45.33744" lon="4.70618">
        <ele>460</ele>
        <time>2022-02-20T12:56:53Z</time>
      </trkpt>
      <trkpt lat="45.33764" lon="4.70524">
        <ele>468</ele>
        <time>2022-02-20T12:58:25Z</time>
      </trkpt>
      <trkpt lat="45.33782" lon="4.70461">
        <ele>472</ele>
        <time>2022-02-20T12:59:29Z</time>
      </trkpt>
      <trkpt lat="45.33793" lon="4.70454">
        <ele>472</ele>
        <time>2022-02-20T12:59:45Z</time>
      </trkpt>
      <trkpt lat="45.3381" lon="4.70455">
        <ele>472</ele>
        <time>2022-02-20T13:00:08Z</time>
      </trkpt>
      <trkpt lat="45.33788" lon="4.7046">
        <ele>472</ele>
        <time>2022-02-20T13:00:38Z</time>
      </trkpt>
      <trkpt lat="45.33798" lon="4.70456">
        <ele>472</ele>
        <time>2022-02-20T13:00:52Z</time>
      </trkpt>
      <trkpt lat="45.33838" lon="4.70462">
        <ele>470</ele>
        <time>2022-02-20T13:01:45Z</time>
      </trkpt>
      <trkpt lat="45.33879" lon="4.70458">
        <ele>466</ele>
        <time>2022-02-20T13:02:40Z</time>
      </trkpt>
      <trkpt lat="45.33892" lon="4.70448">
        <ele>465</ele>
        <time>2022-02-20T13:03:00Z</time>
      </trkpt>
      <trkpt lat="45.33897" lon="4.70449">
        <ele>465</ele>
        <time>2022-02-20T13:03:07Z</time>
      </trkpt>
      <trkpt lat="45.33925" lon="4.70418">
        <ele>462</ele>
        <time>2022-02-20T13:03:54Z</time>
      </trkpt>
      <trkpt lat="45.33937" lon="4.7041">
        <ele>459</ele>
        <time>2022-02-20T13:04:12Z</time>
      </trkpt>
      <trkpt lat="45.33957" lon="4.7041">
        <ele>456</ele>
        <time>2022-02-20T13:04:38Z</time>
      </trkpt>
      <trkpt lat="45.33977" lon="4.70424">
        <ele>453</ele>
        <time>2022-02-20T13:05:08Z</time>
      </trkpt>
      <trkpt lat="45.33973" lon="4.70424">
        <ele>454</ele>
        <time>2022-02-20T13:05:13Z</time>
      </trkpt>
      <trkpt lat="45.33976" lon="4.70421">
        <ele>453</ele>
        <time>2022-02-20T13:05:18Z</time>
      </trkpt>
      <trkpt lat="45.34015" lon="4.70426">
        <ele>447</ele>
        <time>2022-02-20T13:06:11Z</time>
      </trkpt>
      <trkpt lat="45.3407" lon="4.70407">
        <ele>437</ele>
        <time>2022-02-20T13:07:26Z</time>
      </trkpt>
      <trkpt lat="45.34081" lon="4.70397">
        <ele>435</ele>
        <time>2022-02-20T13:07:43Z</time>
      </trkpt>
      <trkpt lat="45.34096" lon="4.70371">
        <ele>430</ele>
        <time>2022-02-20T13:08:15Z</time>
      </trkpt>
      <trkpt lat="45.34104" lon="4.7034">
        <ele>427</ele>
        <time>2022-02-20T13:08:46Z</time>
      </trkpt>
      <trkpt lat="45.34111" lon="4.70331">
        <ele>426</ele>
        <time>2022-02-20T13:08:59Z</time>
      </trkpt>
      <trkpt lat="45.34165" lon="4.70294">
        <ele>417</ele>
        <time>2022-02-20T13:10:19Z</time>
      </trkpt>
      <trkpt lat="45.34192" lon="4.70282">
        <ele>413</ele>
        <time>2022-02-20T13:10:56Z</time>
      </trkpt>
      <trkpt lat="45.34287" lon="4.70225">
        <ele>401</ele>
        <time>2022-02-20T13:13:14Z</time>
      </trkpt>
      <trkpt lat="45.34394" lon="4.70205">
        <ele>388</ele>
        <time>2022-02-20T13:15:38Z</time>
      </trkpt>
      <trkpt lat="45.34455" lon="4.70205">
        <ele>382</ele>
        <time>2022-02-20T13:16:59Z</time>
      </trkpt>
      <trkpt lat="45.3455" lon="4.70188">
        <ele>369</ele>
        <time>2022-02-20T13:19:07Z</time>
      </trkpt>
      <trkpt lat="45.34555" lon="4.70189">
        <ele>368</ele>
        <time>2022-02-20T13:19:14Z</time>
      </trkpt>
      <trkpt lat="45.34561" lon="4.70201">
        <ele>368</ele>
        <time>2022-02-20T13:19:28Z</time>
      </trkpt>
      <trkpt lat="45.34566" lon="4.70253">
        <ele>370</ele>
        <time>2022-02-20T13:20:17Z</time>
      </trkpt>
      <trkpt lat="45.34594" lon="4.70291">
        <ele>368</ele>
        <time>2022-02-20T13:21:09Z</time>
      </trkpt>
      <trkpt lat="45.34606" lon="4.70343">
        <ele>369</ele>
        <time>2022-02-20T13:22:00Z</time>
      </trkpt>
      <trkpt lat="45.34628" lon="4.70393">
        <ele>368</ele>
        <time>2022-02-20T13:22:55Z</time>
      </trkpt>
      <trkpt lat="45.34645" lon="4.70447">
        <ele>368</ele>
        <time>2022-02-20T13:23:51Z</time>
      </trkpt>
      <trkpt lat="45.34659" lon="4.70508">
        <ele>369</ele>
        <time>2022-02-20T13:24:51Z</time>
      </trkpt>
      <trkpt lat="45.34678" lon="4.70517">
        <ele>368</ele>
        <time>2022-02-20T13:25:18Z</time>
      </trkpt>
      <trkpt lat="45.34712" lon="4.70514">
        <ele>364</ele>
        <time>2022-02-20T13:26:03Z</time>
      </trkpt>
      <trkpt lat="45.34772" lon="4.70546">
        <ele>360</ele>
        <time>2022-02-20T13:27:29Z</time>
      </trkpt>
      <trkpt lat="45.34791" lon="4.70548">
        <ele>359</ele>
        <time>2022-02-20T13:27:54Z</time>
      </trkpt>
      <trkpt lat="45.34835" lon="4.70565">
        <ele>357</ele>
        <time>2022-02-20T13:28:55Z</time>
      </trkpt>
      <trkpt lat="45.34876" lon="4.7057">
        <ele>354</ele>
        <time>2022-02-20T13:29:50Z</time>
      </trkpt>
      <trkpt lat="45.34886" lon="4.70568">
        <ele>353</ele>
        <time>2022-02-20T13:30:03Z</time>
      </trkpt>
      <trkpt lat="45.34884" lon="4.70566">
        <ele>353</ele>
        <time>2022-02-20T13:30:06Z</time>
      </trkpt>
      <trkpt lat="45.34924" lon="4.7052">
        <ele>346</ele>
        <time>2022-02-20T13:31:15Z</time>
      </trkpt>
      <trkpt lat="45.34941" lon="4.70506">
        <ele>342</ele>
        <time>2022-02-20T13:31:41Z</time>
      </trkpt>
      <trkpt lat="45.34958" lon="4.70515">
        <ele>340</ele>
        <time>2022-02-20T13:32:06Z</time>
      </trkpt>
      <trkpt lat="45.34963" lon="4.70528">
        <ele>340</ele>
        <time>2022-02-20T13:32:19Z</time>
      </trkpt>
      <trkpt lat="45.34972" lon="4.70602">
        <ele>342</ele>
        <time>2022-02-20T13:33:30Z</time>
      </trkpt>
      <trkpt lat="45.34957" lon="4.70664">
        <ele>346</ele>
        <time>2022-02-20T13:34:31Z</time>
      </trkpt>
      <trkpt lat="45.34963" lon="4.708">
        <ele>348</ele>
        <time>2022-02-20T13:36:39Z</time>
      </trkpt>
      <trkpt lat="45.34951" lon="4.70952">
        <ele>348</ele>
        <time>2022-02-20T13:39:03Z</time>
      </trkpt>
      <trkpt lat="45.34947" lon="4.70975">
        <ele>348</ele>
        <time>2022-02-20T13:39:25Z</time>
      </trkpt>
      <trkpt lat="45.34917" lon="4.71023">
        <ele>355</ele>
        <time>2022-02-20T13:40:25Z</time>
      </trkpt>
      <trkpt lat="45.34874" lon="4.71133">
        <ele>359</ele>
        <time>2022-02-20T13:42:23Z</time>
      </trkpt>
      <trkpt lat="45.34868" lon="4.71153">
        <ele>360</ele>
        <time>2022-02-20T13:42:43Z</time>
      </trkpt>
      <trkpt lat="45.34869" lon="4.71176">
        <ele>359</ele>
        <time>2022-02-20T13:43:05Z</time>
      </trkpt>
      <trkpt lat="45.34857" lon="4.71226">
        <ele>361</ele>
        <time>2022-02-20T13:43:55Z</time>
      </trkpt>
      <trkpt lat="45.34859" lon="4.71243">
        <ele>361</ele>
        <time>2022-02-20T13:44:11Z</time>
      </trkpt>
      <trkpt lat="45.34882" lon="4.71299">
        <ele>361</ele>
        <time>2022-02-20T13:45:12Z</time>
      </trkpt>
      <trkpt lat="45.34903" lon="4.71405">
        <ele>363</ele>
        <time>2022-02-20T13:46:55Z</time>
      </trkpt>
      <trkpt lat="45.34902" lon="4.71452">
        <ele>363</ele>
        <time>2022-02-20T13:47:39Z</time>
      </trkpt>
      <trkpt lat="45.34914" lon="4.71523">
        <ele>361</ele>
        <time>2022-02-20T13:48:48Z</time>
      </trkpt>
      <trkpt lat="45.34898" lon="4.71591">
        <ele>359</ele>
        <time>2022-02-20T13:49:55Z</time>
      </trkpt>
      <trkpt lat="45.34892" lon="4.71642">
        <ele>358</ele>
        <time>2022-02-20T13:50:43Z</time>
      </trkpt>
      <trkpt lat="45.34893" lon="4.71675">
        <ele>356</ele>
        <time>2022-02-20T13:51:14Z</time>
      </trkpt>
      <trkpt lat="45.34908" lon="4.71795">
        <ele>350</ele>
        <time>2022-02-20T13:53:09Z</time>
      </trkpt>
      <trkpt lat="45.34919" lon="4.71826">
        <ele>350</ele>
        <time>2022-02-20T13:53:41Z</time>
      </trkpt>
      <trkpt lat="45.34935" lon="4.71898">
        <ele>350</ele>
        <time>2022-02-20T13:54:52Z</time>
      </trkpt>
      <trkpt lat="45.34935" lon="4.71938">
        <ele>351</ele>
        <time>2022-02-20T13:55:29Z</time>
      </trkpt>
      <trkpt lat="45.34944" lon="4.71984">
        <ele>352</ele>
        <time>2022-02-20T13:56:14Z</time>
      </trkpt>
      <trkpt lat="45.34947" lon="4.72036">
        <ele>352</ele>
        <time>2022-02-20T13:57:03Z</time>
      </trkpt>
      <trkpt lat="45.34945" lon="4.72042">
        <ele>352</ele>
        <time>2022-02-20T13:57:09Z</time>
      </trkpt>
      <trkpt lat="45.34937" lon="4.72046">
        <ele>352</ele>
        <time>2022-02-20T13:57:21Z</time>
      </trkpt>
      <trkpt lat="45.34903" lon="4.72046">
        <ele>353</ele>
        <time>2022-02-20T13:58:06Z</time>
      </trkpt>
      <trkpt lat="45.34845" lon="4.72061">
        <ele>353</ele>
        <time>2022-02-20T13:59:25Z</time>
      </trkpt>
      <trkpt lat="45.34781" lon="4.72091">
        <ele>352</ele>
        <time>2022-02-20T14:00:55Z</time>
      </trkpt>
      <trkpt lat="45.34761" lon="4.72107">
        <ele>352</ele>
        <time>2022-02-20T14:01:25Z</time>
      </trkpt>
      <trkpt lat="45.34757" lon="4.72117">
        <ele>352</ele>
        <time>2022-02-20T14:01:36Z</time>
      </trkpt>
      <trkpt lat="45.3476" lon="4.72193">
        <ele>350</ele>
        <time>2022-02-20T14:02:47Z</time>
      </trkpt>
      <trkpt lat="45.34744" lon="4.72235">
        <ele>347</ele>
        <time>2022-02-20T14:03:32Z</time>
      </trkpt>
      <trkpt lat="45.34735" lon="4.72279">
        <ele>344</ele>
        <time>2022-02-20T14:04:15Z</time>
      </trkpt>
      <trkpt lat="45.34749" lon="4.72318">
        <ele>342</ele>
        <time>2022-02-20T14:04:56Z</time>
      </trkpt>
      <trkpt lat="45.34789" lon="4.72384">
        <ele>338</ele>
        <time>2022-02-20T14:06:18Z</time>
      </trkpt>
      <trkpt lat="45.3479" lon="4.72416">
        <ele>337</ele>
        <time>2022-02-20T14:06:48Z</time>
      </trkpt>
      <trkpt lat="45.34785" lon="4.72436">
        <ele>334</ele>
        <time>2022-02-20T14:07:08Z</time>
      </trkpt>
      <trkpt lat="45.34778" lon="4.72449">
        <ele>333</ele>
        <time>2022-02-20T14:07:23Z</time>
      </trkpt>
      <trkpt lat="45.34771" lon="4.72505">
        <ele>326</ele>
        <time>2022-02-20T14:08:17Z</time>
      </trkpt>
      <trkpt lat="45.34758" lon="4.72566">
        <ele>319</ele>
        <time>2022-02-20T14:09:16Z</time>
      </trkpt>
      <trkpt lat="45.34757" lon="4.72616">
        <ele>315</ele>
        <time>2022-02-20T14:10:03Z</time>
      </trkpt>
      <trkpt lat="45.34761" lon="4.72629">
        <ele>314</ele>
        <time>2022-02-20T14:10:17Z</time>
      </trkpt>
      <trkpt lat="45.34742" lon="4.72651">
        <ele>313</ele>
        <time>2022-02-20T14:10:49Z</time>
      </trkpt>
      <trkpt lat="45.34729" lon="4.72681">
        <ele>312</ele>
        <time>2022-02-20T14:11:22Z</time>
      </trkpt>
      <trkpt lat="45.34709" lon="4.72682">
        <ele>314</ele>
        <time>2022-02-20T14:11:49Z</time>
      </trkpt>
      <trkpt lat="45.34699" lon="4.72693">
        <ele>314</ele>
        <time>2022-02-20T14:12:06Z</time>
      </trkpt>
      <trkpt lat="45.34693" lon="4.72708">
        <ele>315</ele>
        <time>2022-02-20T14:12:22Z</time>
      </trkpt>
      <trkpt lat="45.34693" lon="4.72721">
        <ele>315</ele>
        <time>2022-02-20T14:12:34Z</time>
      </trkpt>
      <trkpt lat="45.347" lon="4.72799">
        <ele>316</ele>
        <time>2022-02-20T14:13:48Z</time>
      </trkpt>
      <trkpt lat="45.34694" lon="4.72808">
        <ele>317</ele>
        <time>2022-02-20T14:14:00Z</time>
      </trkpt>
      <trkpt lat="45.34666" lon="4.72825">
        <ele>321</ele>
        <time>2022-02-20T14:14:40Z</time>
      </trkpt>
      <trkpt lat="45.34641" lon="4.72833">
        <ele>323</ele>
        <time>2022-02-20T14:15:15Z</time>
      </trkpt>
      <trkpt lat="45.34638" lon="4.72859">
        <ele>324</ele>
        <time>2022-02-20T14:15:39Z</time>
      </trkpt>
      <trkpt lat="45.34614" lon="4.72897">
        <ele>326</ele>
        <time>2022-02-20T14:16:27Z</time>
      </trkpt>
      <trkpt lat="45.34552" lon="4.7297">
        <ele>329</ele>
        <time>2022-02-20T14:18:15Z</time>
      </trkpt>
      <trkpt lat="45.34517" lon="4.73005">
        <ele>332</ele>
        <time>2022-02-20T14:19:12Z</time>
      </trkpt>
      <trkpt lat="45.34475" lon="4.73071">
        <ele>331</ele>
        <time>2022-02-20T14:20:35Z</time>
      </trkpt>
      <trkpt lat="45.34433" lon="4.73112">
        <ele>331</ele>
        <time>2022-02-20T14:21:43Z</time>
      </trkpt>
      <trkpt lat="45.34375" lon="4.73199">
        <ele>329</ele>
        <time>2022-02-20T14:23:36Z</time>
      </trkpt>
      <trkpt lat="45.34353" lon="4.73217">
        <ele>328</ele>
        <time>2022-02-20T14:24:10Z</time>
      </trkpt>
      <trkpt lat="45.34322" lon="4.73225">
        <ele>328</ele>
        <time>2022-02-20T14:24:52Z</time>
      </trkpt>
      <trkpt lat="45.3428" lon="4.73268">
        <ele>325</ele>
        <time>2022-02-20T14:26:01Z</time>
      </trkpt>
      <trkpt lat="45.34247" lon="4.73332">
        <ele>324</ele>
        <time>2022-02-20T14:27:15Z</time>
      </trkpt>
      <trkpt lat="45.34216" lon="4.73416">
        <ele>322</ele>
        <time>2022-02-20T14:28:44Z</time>
      </trkpt>
      <trkpt lat="45.34178" lon="4.73494">
        <ele>322</ele>
        <time>2022-02-20T14:30:13Z</time>
      </trkpt>
      <trkpt lat="45.34133" lon="4.73538">
        <ele>319</ele>
        <time>2022-02-20T14:31:26Z</time>
      </trkpt>
      <trkpt lat="45.34085" lon="4.73549">
        <ele>317</ele>
        <time>2022-02-20T14:32:31Z</time>
      </trkpt>
      <trkpt lat="45.34075" lon="4.73556">
        <ele>316</ele>
        <time>2022-02-20T14:32:46Z</time>
      </trkpt>
      <trkpt lat="45.34072" lon="4.73625">
        <ele>314</ele>
        <time>2022-02-20T14:33:51Z</time>
      </trkpt>
      <trkpt lat="45.34055" lon="4.73659">
        <ele>314</ele>
        <time>2022-02-20T14:34:30Z</time>
      </trkpt>
      <trkpt lat="45.3403" lon="4.73686">
        <ele>315</ele>
        <time>2022-02-20T14:35:12Z</time>
      </trkpt>
      <trkpt lat="45.33991" lon="4.73744">
        <ele>317</ele>
        <time>2022-02-20T14:36:27Z</time>
      </trkpt>
      <trkpt lat="45.33956" lon="4.7381">
        <ele>319</ele>
        <time>2022-02-20T14:37:44Z</time>
      </trkpt>
      <trkpt lat="45.33897" lon="4.73942">
        <ele>323</ele>
        <time>2022-02-20T14:40:11Z</time>
      </trkpt>
      <trkpt lat="45.33884" lon="4.74016">
        <ele>325</ele>
        <time>2022-02-20T14:41:23Z</time>
      </trkpt>
      <trkpt lat="45.33852" lon="4.74106">
        <ele>328</ele>
        <time>2022-02-20T14:42:57Z</time>
      </trkpt>
      <trkpt lat="45.33828" lon="4.74155">
        <ele>330</ele>
        <time>2022-02-20T14:43:53Z</time>
      </trkpt>
      <trkpt lat="45.33803" lon="4.7418">
        <ele>331</ele>
        <time>2022-02-20T14:44:34Z</time>
      </trkpt>
      <trkpt lat="45.33757" lon="4.74209">
        <ele>332</ele>
        <time>2022-02-20T14:45:41Z</time>
      </trkpt>
      <trkpt lat="45.33732" lon="4.74209">
        <ele>332</ele>
        <time>2022-02-20T14:46:15Z</time>
      </trkpt>
      <trkpt lat="45.33709" lon="4.74187">
        <ele>332</ele>
        <time>2022-02-20T14:46:52Z</time>
      </trkpt>
      <trkpt lat="45.33696" lon="4.74188">
        <ele>332</ele>
        <time>2022-02-20T14:47:09Z</time>
      </trkpt>
      <trkpt lat="45.33673" lon="4.74201">
        <ele>333</ele>
        <time>2022-02-20T14:47:42Z</time>
      </trkpt>
      <trkpt lat="45.33678" lon="4.74207">
        <ele>333</ele>
        <time>2022-02-20T14:47:51Z</time>
      </trkpt>
      <trkpt lat="45.33676" lon="4.74198">
        <ele>333</ele>
        <time>2022-02-20T14:48:00Z</time>
      </trkpt>
      <trkpt lat="45.33694" lon="4.74198">
        <ele>332</ele>
        <time>2022-02-20T14:48:24Z</time>
      </trkpt>
      <trkpt lat="45.33713" lon="4.74188">
        <ele>332</ele>
        <time>2022-02-20T14:48:51Z</time>
      </trkpt>
      <trkpt lat="45.33725" lon="4.7421">
        <ele>332</ele>
        <time>2022-02-20T14:49:17Z</time>
      </trkpt>
      <trkpt lat="45.33732" lon="4.74214">
        <ele>332</ele>
        <time>2022-02-20T14:49:27Z</time>
      </trkpt>
      <trkpt lat="45.33758" lon="4.74211">
        <ele>332</ele>
        <time>2022-02-20T14:50:02Z</time>
      </trkpt>
      <trkpt lat="45.33789" lon="4.74199">
        <ele>331</ele>
        <time>2022-02-20T14:50:44Z</time>
      </trkpt>
      <trkpt lat="45.3382" lon="4.74171">
        <ele>330</ele>
        <time>2022-02-20T14:51:33Z</time>
      </trkpt>
      <trkpt lat="45.33848" lon="4.74129">
        <ele>329</ele>
        <time>2022-02-20T14:52:28Z</time>
      </trkpt>
      <trkpt lat="45.33857" lon="4.74088">
        <ele>327</ele>
        <time>2022-02-20T14:53:08Z</time>
      </trkpt>
      <trkpt lat="45.33869" lon="4.74059">
        <ele>326</ele>
        <time>2022-02-20T14:53:40Z</time>
      </trkpt>
      <trkpt lat="45.33899" lon="4.74041">
        <ele>325</ele>
        <time>2022-02-20T14:54:23Z</time>
      </trkpt>
      <trkpt lat="45.33973" lon="4.74015">
        <ele>320</ele>
        <time>2022-02-20T14:56:05Z</time>
      </trkpt>
      <trkpt lat="45.34096" lon="4.73957">
        <ele>312</ele>
        <time>2022-02-20T14:58:58Z</time>
      </trkpt>
      <trkpt lat="45.34187" lon="4.73869">
        <ele>305</ele>
        <time>2022-02-20T15:01:25Z</time>
      </trkpt>
      <trkpt lat="45.34195" lon="4.73867">
        <ele>305</ele>
        <time>2022-02-20T15:01:35Z</time>
      </trkpt>
      <trkpt lat="45.34189" lon="4.73866">
        <ele>305</ele>
        <time>2022-02-20T15:01:43Z</time>
      </trkpt>
      <trkpt lat="45.34229" lon="4.7388">
        <ele>303</ele>
        <time>2022-02-20T15:02:38Z</time>
      </trkpt>
      <trkpt lat="45.34255" lon="4.73895">
        <ele>300</ele>
        <time>2022-02-20T15:03:16Z</time>
      </trkpt>
      <trkpt lat="45.3429" lon="4.73878">
        <ele>302</ele>
        <time>2022-02-20T15:04:05Z</time>
      </trkpt>
      <trkpt lat="45.34347" lon="4.73865">
        <ele>303</ele>
        <time>2022-02-20T15:05:22Z</time>
      </trkpt>
      <trkpt lat="45.34394" lon="4.73842">
        <ele>304</ele>
        <time>2022-02-20T15:06:29Z</time>
      </trkpt>
      <trkpt lat="45.34441" lon="4.73787">
        <ele>308</ele>
        <time>2022-02-20T15:07:50Z</time>
      </trkpt>
      <trkpt lat="45.34454" lon="4.73779">
        <ele>308</ele>
        <time>2022-02-20T15:08:09Z</time>
      </trkpt>
      <trkpt lat="45.34468" lon="4.73781">
        <ele>308</ele>
        <time>2022-02-20T15:08:27Z</time>
      </trkpt>
      <trkpt lat="45.34486" lon="4.73829">
        <ele>307</ele>
        <time>2022-02-20T15:09:18Z</time>
      </trkpt>
      <trkpt lat="45.3448" lon="4.73864">
        <ele>306</ele>
        <time>2022-02-20T15:09:52Z</time>
      </trkpt>
      <trkpt lat="45.34482" lon="4.73871">
        <ele>307</ele>
        <time>2022-02-20T15:09:59Z</time>
      </trkpt>
      <trkpt lat="45.34537" lon="4.73903">
        <ele>311</ele>
        <time>2022-02-20T15:11:19Z</time>
      </trkpt>
      <trkpt lat="45.34552" lon="4.73918">
        <ele>312</ele>
        <time>2022-02-20T15:11:43Z</time>
      </trkpt>
      <trkpt lat="45.34544" lon="4.74002">
        <ele>313</ele>
        <time>2022-02-20T15:13:03Z</time>
      </trkpt>
      <trkpt lat="45.34565" lon="4.74014">
        <ele>314</ele>
        <time>2022-02-20T15:13:33Z</time>
      </trkpt>
      <trkpt lat="45.34667" lon="4.74152">
        <ele>314</ele>
        <time>2022-02-20T15:16:41Z</time>
      </trkpt>
      <trkpt lat="45.34716" lon="4.74199">
        <ele>311</ele>
        <time>2022-02-20T15:18:00Z</time>
      </trkpt>
      <trkpt lat="45.34737" lon="4.74236">
        <ele>309</ele>
        <time>2022-02-20T15:18:44Z</time>
      </trkpt>
      <trkpt lat="45.34748" lon="4.74272">
        <ele>307</ele>
        <time>2022-02-20T15:19:21Z</time>
      </trkpt>
      <trkpt lat="45.34745" lon="4.74293">
        <ele>306</ele>
        <time>2022-02-20T15:19:41Z</time>
      </trkpt>
      <trkpt lat="45.34689" lon="4.74396">
        <ele>302</ele>
        <time>2022-02-20T15:21:43Z</time>
      </trkpt>
      <trkpt lat="45.34657" lon="4.74477">
        <ele>296</ele>
        <time>2022-02-20T15:23:10Z</time>
      </trkpt>
      <trkpt lat="45.34642" lon="4.74599">
        <ele>289</ele>
        <time>2022-02-20T15:25:06Z</time>
      </trkpt>
      <trkpt lat="45.3464" lon="4.74676">
        <ele>287</ele>
        <time>2022-02-20T15:26:19Z</time>
      </trkpt>
      <trkpt lat="45.34632" lon="4.7476">
        <ele>283</ele>
        <time>2022-02-20T15:27:38Z</time>
      </trkpt>
      <trkpt lat="45.34621" lon="4.74828">
        <ele>280</ele>
        <time>2022-02-20T15:28:44Z</time>
      </trkpt>
      <trkpt lat="45.34622" lon="4.74856">
        <ele>279</ele>
        <time>2022-02-20T15:29:10Z</time>
      </trkpt>
      <trkpt lat="45.34624" lon="4.74878">
        <ele>278</ele>
        <time>2022-02-20T15:29:31Z</time>
      </trkpt>
      <trkpt lat="45.34628" lon="4.74915">
        <ele>276</ele>
        <time>2022-02-20T15:30:06Z</time>
      </trkpt>
      <trkpt lat="45.34634" lon="4.74926">
        <ele>275</ele>
        <time>2022-02-20T15:30:19Z</time>
      </trkpt>
      <trkpt lat="45.34643" lon="4.7493">
        <ele>274</ele>
        <time>2022-02-20T15:30:32Z</time>
      </trkpt>
      <trkpt lat="45.34651" lon="4.74907">
        <ele>272</ele>
        <time>2022-02-20T15:30:56Z</time>
      </trkpt>
      <trkpt lat="45.34667" lon="4.74885">
        <ele>270</ele>
        <time>2022-02-20T15:31:25Z</time>
      </trkpt>
      <trkpt lat="45.34678" lon="4.74816">
        <ele>272</ele>
        <time>2022-02-20T15:32:32Z</time>
      </trkpt>
      <trkpt lat="45.34695" lon="4.7477">
        <ele>272</ele>
        <time>2022-02-20T15:33:20Z</time>
      </trkpt>
      <trkpt lat="45.34718" lon="4.74672">
        <ele>275</ele>
        <time>2022-02-20T15:34:57Z</time>
      </trkpt>
      <trkpt lat="45.34723" lon="4.74629">
        <ele>276</ele>
        <time>2022-02-20T15:35:38Z</time>
      </trkpt>
      <trkpt lat="45.34756" lon="4.74573">
        <ele>275</ele>
        <time>2022-02-20T15:36:47Z</time>
      </trkpt>
      <trkpt lat="45.34799" lon="4.74526">
        <ele>275</ele>
        <time>2022-02-20T15:37:59Z</time>
      </trkpt>
      <trkpt lat="45.34814" lon="4.7453">
        <ele>272</ele>
        <time>2022-02-20T15:38:19Z</time>
      </trkpt>
      <trkpt lat="45.34845" lon="4.74556">
        <ele>265</ele>
        <time>2022-02-20T15:39:07Z</time>
      </trkpt>
      <trkpt lat="45.34853" lon="4.74576">
        <ele>261</ele>
        <time>2022-02-20T15:39:29Z</time>
      </trkpt>
      <trkpt lat="45.34886" lon="4.7461">
        <ele>252</ele>
        <time>2022-02-20T15:40:23Z</time>
      </trkpt>
      <trkpt lat="45.34888" lon="4.74642">
        <ele>250</ele>
        <time>2022-02-20T15:40:54Z</time>
      </trkpt>
      <trkpt lat="45.34913" lon="4.74671">
        <ele>244</ele>
        <time>2022-02-20T15:41:37Z</time>
      </trkpt>
      <trkpt lat="45.34915" lon="4.74688">
        <ele>242</ele>
        <time>2022-02-20T15:41:53Z</time>
      </trkpt>
      <trkpt lat="45.34902" lon="4.74762">
        <ele>237</ele>
        <time>2022-02-20T15:43:04Z</time>
      </trkpt>
      <trkpt lat="45.34904" lon="4.74773">
        <ele>235</ele>
        <time>2022-02-20T15:43:15Z</time>
      </trkpt>
      <trkpt lat="45.34917" lon="4.74773">
        <ele>233</ele>
        <time>2022-02-20T15:43:32Z</time>
      </trkpt>
      <trkpt lat="45.34941" lon="4.74756">
        <ele>229</ele>
        <time>2022-02-20T15:44:08Z</time>
      </trkpt>
      <trkpt lat="45.3496" lon="4.74748">
        <ele>225</ele>
        <time>2022-02-20T15:44:35Z</time>
      </trkpt>
      <trkpt lat="45.34976" lon="4.74737">
        <ele>222</ele>
        <time>2022-02-20T15:44:58Z</time>
      </trkpt>
      <trkpt lat="45.34991" lon="4.74719">
        <ele>221</ele>
        <time>2022-02-20T15:45:24Z</time>
      </trkpt>
      <trkpt lat="45.35017" lon="4.74752">
        <ele>212</ele>
        <time>2022-02-20T15:46:11Z</time>
      </trkpt>
      <trkpt lat="45.35069" lon="4.74771">
        <ele>201</ele>
        <time>2022-02-20T15:47:23Z</time>
      </trkpt>
      <trkpt lat="45.35087" lon="4.74774">
        <ele>198</ele>
        <time>2022-02-20T15:47:47Z</time>
      </trkpt>
      <trkpt lat="45.35096" lon="4.7478">
        <ele>196</ele>
        <time>2022-02-20T15:48:00Z</time>
      </trkpt>
      <trkpt lat="45.35083" lon="4.74855">
        <ele>192</ele>
        <time>2022-02-20T15:49:12Z</time>
      </trkpt>
      <trkpt lat="45.35075" lon="4.74878">
        <ele>190</ele>
        <time>2022-02-20T15:49:37Z</time>
      </trkpt>
      <trkpt lat="45.35064" lon="4.74951">
        <ele>184</ele>
        <time>2022-02-20T15:50:47Z</time>
      </trkpt>
      <trkpt lat="45.35092" lon="4.75001">
        <ele>177</ele>
        <time>2022-02-20T15:51:46Z</time>
      </trkpt>
      <trkpt lat="45.35114" lon="4.75008">
        <ele>172</ele>
        <time>2022-02-20T15:52:17Z</time>
      </trkpt>
      <trkpt lat="45.35125" lon="4.75026">
        <ele>169</ele>
        <time>2022-02-20T15:52:39Z</time>
      </trkpt>
      <trkpt lat="45.35117" lon="4.75044">
        <ele>170</ele>
        <time>2022-02-20T15:52:59Z</time>
      </trkpt>
      <trkpt lat="45.35094" lon="4.75155">
        <ele>170</ele>
        <time>2022-02-20T15:54:47Z</time>
      </trkpt>
      <trkpt lat="45.35095" lon="4.75182">
        <ele>169</ele>
        <time>2022-02-20T15:55:13Z</time>
      </trkpt>
      <trkpt lat="45.35136" lon="4.75289">
        <ele>161</ele>
        <time>2022-02-20T15:57:07Z</time>
      </trkpt>
      <trkpt lat="45.35148" lon="4.75331">
        <ele>160</ele>
        <time>2022-02-20T15:57:50Z</time>
      </trkpt>
      <trkpt lat="45.35153" lon="4.75368">
        <ele>162</ele>
        <time>2022-02-20T15:58:25Z</time>
      </trkpt>
      <trkpt lat="45.35173" lon="4.75415">
        <ele>162</ele>
        <time>2022-02-20T15:59:16Z</time>
      </trkpt>
      <trkpt lat="45.35183" lon="4.75504">
        <ele>165</ele>
        <time>2022-02-20T16:00:41Z</time>
      </trkpt>
      <trkpt lat="45.35194" lon="4.75547">
        <ele>161</ele>
        <time>2022-02-20T16:01:24Z</time>
      </trkpt>
      <trkpt lat="45.35212" lon="4.75593">
        <ele>155</ele>
        <time>2022-02-20T16:02:13Z</time>
      </trkpt>
      <trkpt lat="45.35216" lon="4.75655">
        <ele>150</ele>
        <time>2022-02-20T16:03:12Z</time>
      </trkpt>
      <trkpt lat="45.35231" lon="4.75678">
        <ele>146</ele>
        <time>2022-02-20T16:03:41Z</time>
      </trkpt>
      <trkpt lat="45.3523" lon="4.75711">
        <ele>145</ele>
        <time>2022-02-20T16:04:12Z</time>
      </trkpt>
      <trkpt lat="45.35213" lon="4.75751">
        <ele>144</ele>
        <time>2022-02-20T16:04:56Z</time>
      </trkpt>
      <trkpt lat="45.35197" lon="4.75827">
        <ele>142</ele>
        <time>2022-02-20T16:06:10Z</time>
      </trkpt>
      <trkpt lat="45.35168" lon="4.75826">
        <ele>141</ele>
        <time>2022-02-20T16:06:49Z</time>
      </trkpt>
      <trkpt lat="45.35149" lon="4.75876">
        <ele>140</ele>
        <time>2022-02-20T16:07:42Z</time>
      </trkpt>
      <trkpt lat="45.35128" lon="4.75922">
        <ele>139</ele>
        <time>2022-02-20T16:08:34Z</time>
      </trkpt>
      <trkpt lat="45.35033" lon="4.75877">
        <ele>140</ele>
        <time>2022-02-20T16:10:47Z</time>
      </trkpt>
      <trkpt lat="45.35034" lon="4.75823">
        <ele>140</ele>
        <time>2022-02-20T16:11:38Z</time>
      </trkpt>
      <trkpt lat="45.35012" lon="4.75778">
        <ele>141</ele>
        <time>2022-02-20T16:12:29Z</time>
      </trkpt>
    </trkseg>
  </trk>
</gpx>